Terminal Aerodrome Forecast
Issued by NWS Albany, NY

Current Version | Previous Version | Text Only | Print | Product List | Glossary On
Versions: 1 2 3 4 5 6 7 8 9 10 11 12 13 14 15 16 17 18 19 20 21 22 23 24 25 26
000 FTUS41 KALY 222300 CCA TAFALB TAF COR KALB 222354Z 2300/2324 01009G24KT P6SM -RA VCSH FEW022 SCT025 OVC035 FM230700 35011KT 3SM -RA BR OVC008 TEMPO 2308/2312 1SM RA BR OVC007 FM231700 34010KT 4SM -RA BR SCT008 OVC015=

USA.gov is the U.S. government's official web portal to all federal, state and local government web resources and services.